Time;durP1;ratioP1;P1;durP2;ratioP2;P2;SDS_P1;SDS_P2;PMS_P1;PMS_P2;Temp;Humidity;BMP_temperature;BMP_pressure;BME280_temperature;BME280_humidity;BME280_pressure;Samples;Min_cycle;Max_cycle;Signal;HPM_P1;HPM_P2
2023/08/21 00:03:47;;;;;;;;;;;21.70;99.90;;;;;;7336327;19;111678;-65
2023/08/21 00:06:14;;;;;;;;;;;21.70;99.90;;;;;;7340392;19;109033;-65
2023/08/21 00:08:41;;;;;;;;;;;21.70;99.90;;;;;;7341962;19;109326;-65
2023/08/21 00:11:08;;;;;;;;;;;21.80;99.90;;;;;;7336692;19;109013;-65
2023/08/21 00:13:35;;;;;;;;;;;21.70;99.90;;;;;;7338389;19;108701;-65
2023/08/21 00:16:02;;;;;;;;;;;21.70;99.90;;;;;;7337837;19;109089;-65
2023/08/21 00:18:30;;;;;;;;;;;21.60;99.90;;;;;;7334072;19;109254;-65
2023/08/21 00:20:57;;;;;;;;;;;21.40;99.90;;;;;;7337784;19;110959;-65
2023/08/21 00:23:24;;;;;;;;;;;21.30;99.90;;;;;;7335906;19;109541;-65
2023/08/21 00:25:51;;;;;;;;;;;21.30;99.90;;;;;;7336043;19;110128;-65
2023/08/21 00:28:18;;;;;;;;;;;21.20;99.90;;;;;;7335474;19;110165;-66
2023/08/21 00:30:46;;;;;;;;;;;21.30;99.90;;;;;;7341530;19;109167;-65
2023/08/21 00:33:13;;;;;;;;;;;21.30;99.90;;;;;;7337653;19;109509;-65
2023/08/21 00:35:41;;;;;;;;;;;21.30;99.90;;;;;;7337737;19;109403;-65
2023/08/21 00:38:08;;;;;;;;;;;21.40;99.90;;;;;;7337737;19;109039;-65
2023/08/21 00:40:36;;;;;;;;;;;21.40;99.90;;;;;;7334851;19;108867;-65
2023/08/21 00:43:04;;;;;;;;;;;21.40;99.90;;;;;;7333587;19;109244;-65
2023/08/21 00:45:31;;;;;;;;;;;21.30;99.90;;;;;;7334559;19;108866;-65
2023/08/21 00:47:59;;;;;;;;;;;21.30;99.90;;;;;;7338073;19;111893;-65
2023/08/21 00:50:26;;;;;;;;;;;21.30;99.90;;;;;;7333708;19;109357;-65
2023/08/21 00:52:53;;;;;;;;;;;21.30;99.90;;;;;;7343088;19;109946;-65
2023/08/21 00:55:20;;;;;;;;;;;21.40;99.90;;;;;;7335605;19;109135;-65
2023/08/21 00:57:47;;;;;;;;;;;21.40;99.90;;;;;;7338221;19;108381;-65
2023/08/21 01:00:15;;;;;;;;;;;21.50;99.90;;;;;;7333874;19;109306;-65
2023/08/21 01:02:42;;;;;;;;;;;21.60;99.90;;;;;;7335424;19;110195;-65
2023/08/21 01:05:11;;;;;;;;;;;21.60;99.90;;;;;;7336709;19;108658;-65
2023/08/21 01:07:45;;;;;;;;;;;21.50;99.90;;;;;;7332735;19;110012;-65
2023/08/21 01:10:20;;;;;;;;;;;21.40;99.90;;;;;;7336654;19;109260;-65
2023/08/21 01:12:47;;;;;;;;;;;21.30;99.90;;;;;;7336012;19;108745;-65
2023/08/21 01:15:15;;;;;;;;;;;21.20;99.90;;;;;;7337242;19;108747;-67
2023/08/21 01:17:43;;;;;;;;;;;21.20;99.90;;;;;;7335093;19;108732;-65
2023/08/21 01:20:10;;;;;;;;;;;21.20;99.90;;;;;;7335220;19;108232;-65
2023/08/21 01:22:39;;;;;;;;;;;21.20;99.90;;;;;;7331883;19;110960;-65
2023/08/21 01:25:07;;;;;;;;;;;21.30;99.90;;;;;;7337004;19;108460;-65
2023/08/21 01:27:34;;;;;;;;;;;21.30;99.90;;;;;;7334575;19;108694;-65
2023/08/21 01:30:03;;;;;;;;;;;21.30;99.90;;;;;;7332895;19;109789;-65
2023/08/21 01:32:49;;;;;;;;;;;21.30;99.90;;;;;;7335030;19;109752;-65
2023/08/21 01:35:17;;;;;;;;;;;21.30;99.90;;;;;;7335220;19;108978;-65
2023/08/21 01:37:44;;;;;;;;;;;21.30;99.90;;;;;;7333617;19;108694;-64
2023/08/21 01:40:11;;;;;;;;;;;21.20;99.90;;;;;;7334269;19;108439;-65
2023/08/21 01:42:38;;;;;;;;;;;21.10;99.90;;;;;;7333903;19;110623;-65
2023/08/21 01:45:06;;;;;;;;;;;21.00;99.90;;;;;;7336018;19;109060;-65
2023/08/21 01:47:33;;;;;;;;;;;21.00;99.90;;;;;;7332926;19;109023;-64
2023/08/21 01:50:00;;;;;;;;;;;21.00;99.90;;;;;;7334524;19;109800;-65
2023/08/21 01:52:27;;;;;;;;;;;21.00;99.90;;;;;;7333663;19;108697;-65
2023/08/21 01:54:55;;;;;;;;;;;21.00;99.90;;;;;;7335148;19;108748;-65
2023/08/21 01:57:22;;;;;;;;;;;20.90;99.90;;;;;;7336528;19;109483;-65
2023/08/21 01:59:50;;;;;;;;;;;20.80;99.90;;;;;;7336599;19;109286;-65
2023/08/21 02:02:26;;;;;;;;;;;20.70;99.90;;;;;;7331559;19;110137;-65
2023/08/21 02:04:53;;;;;;;;;;;20.60;99.90;;;;;;7336046;19;108561;-65
2023/08/21 02:07:20;;;;;;;;;;;20.60;99.90;;;;;;7333384;19;110002;-65
2023/08/21 02:09:47;;;;;;;;;;;20.60;99.90;;;;;;7334146;19;109188;-65
2023/08/21 02:12:15;;;;;;;;;;;20.60;99.90;;;;;;7331399;19;109738;-65
2023/08/21 02:14:42;;;;;;;;;;;20.60;99.90;;;;;;7333161;19;109917;-65
2023/08/21 02:17:09;;;;;;;;;;;20.60;99.90;;;;;;7334848;19;110281;-65
2023/08/21 02:19:36;;;;;;;;;;;20.50;99.90;;;;;;7337939;19;108633;-65
2023/08/21 02:22:03;;;;;;;;;;;20.40;99.90;;;;;;7334849;19;109622;-65
2023/08/21 02:24:30;;;;;;;;;;;20.40;99.90;;;;;;7335462;19;108887;-65
2023/08/21 02:26:57;;;;;;;;;;;20.40;99.90;;;;;;7332093;19;108767;-65
2023/08/21 02:29:24;;;;;;;;;;;20.40;99.90;;;;;;7335748;19;110156;-64
2023/08/21 02:31:51;;;;;;;;;;;20.40;99.90;;;;;;7332896;19;108914;-65
2023/08/21 02:34:18;;;;;;;;;;;20.40;99.90;;;;;;7334479;19;109613;-65
2023/08/21 02:36:45;;;;;;;;;;;20.50;99.90;;;;;;7333168;19;110032;-65
2023/08/21 02:39:12;;;;;;;;;;;20.50;99.90;;;;;;7334850;19;108899;-65
2023/08/21 02:41:39;;;;;;;;;;;20.50;99.90;;;;;;7338162;19;110303;-65
2023/08/21 02:44:07;;;;;;;;;;;20.40;99.90;;;;;;7332299;19;109313;-64
2023/08/21 02:46:36;;;;;;;;;;;20.40;99.90;;;;;;7332831;19;109424;-64
2023/08/21 02:49:03;;;;;;;;;;;20.40;99.90;;;;;;7334246;19;110219;-64
2023/08/21 02:51:30;;;;;;;;;;;20.40;99.90;;;;;;7338794;19;108509;-64
2023/08/21 02:53:57;;;;;;;;;;;20.30;99.90;;;;;;7340321;19;109486;-64
2023/08/21 02:56:24;;;;;;;;;;;20.30;99.90;;;;;;7335284;19;109594;-65
2023/08/21 02:58:52;;;;;;;;;;;20.20;99.90;;;;;;7339185;19;108991;-64
2023/08/21 03:01:18;;;;;;;;;;;20.20;99.90;;;;;;7340477;19;108996;-65
2023/08/21 03:03:46;;;;;;;;;;;20.10;99.90;;;;;;7344969;19;111225;-64
2023/08/21 03:06:13;;;;;;;;;;;20.00;99.90;;;;;;7337361;19;108599;-65
2023/08/21 03:08:43;;;;;;;;;;;20.00;99.90;;;;;;7338408;19;109146;-64
2023/08/21 03:11:10;;;;;;;;;;;19.90;99.90;;;;;;7341216;19;110026;-65
2023/08/21 03:13:38;;;;;;;;;;;19.90;99.90;;;;;;7336210;19;109128;-64
2023/08/21 03:16:05;;;;;;;;;;;19.80;99.90;;;;;;7338985;19;109494;-65
2023/08/21 03:18:34;;;;;;;;;;;19.70;99.90;;;;;;7339227;19;109598;-64
2023/08/21 03:21:01;;;;;;;;;;;19.70;99.90;;;;;;7339662;19;110142;-65
2023/08/21 03:23:28;;;;;;;;;;;19.70;99.90;;;;;;7337652;19;110645;-64
2023/08/21 03:25:55;;;;;;;;;;;19.80;99.90;;;;;;7342433;19;109557;-65
2023/08/21 03:28:22;;;;;;;;;;;19.80;99.90;;;;;;7337976;19;109112;-64
2023/08/21 03:30:49;;;;;;;;;;;19.80;99.90;;;;;;7337592;19;109481;-65
2023/08/21 03:33:16;;;;;;;;;;;19.80;99.90;;;;;;7336200;19;108970;-65
2023/08/21 03:35:44;;;;;;;;;;;19.80;99.90;;;;;;7339464;19;109477;-65
2023/08/21 03:38:11;;;;;;;;;;;19.80;99.90;;;;;;7339443;19;108990;-65
2023/08/21 03:40:39;;;;;;;;;;;19.80;99.90;;;;;;7337030;19;109391;-65
2023/08/21 03:43:06;;;;;;;;;;;19.80;99.90;;;;;;7335252;19;110032;-64
2023/08/21 03:45:33;;;;;;;;;;;19.80;99.90;;;;;;7341760;19;113140;-64
2023/08/21 03:48:00;;;;;;;;;;;19.80;99.90;;;;;;7334521;19;109379;-64
2023/08/21 03:50:28;;;;;;;;;;;19.80;99.90;;;;;;7337344;19;110140;-64
2023/08/21 03:52:55;;;;;;;;;;;19.90;99.90;;;;;;7336015;19;109363;-64
2023/08/21 03:55:22;;;;;;;;;;;19.90;99.90;;;;;;7333943;19;110158;-65
2023/08/21 03:57:49;;;;;;;;;;;20.00;99.90;;;;;;7336899;19;110344;-65
2023/08/21 04:00:16;;;;;;;;;;;20.00;99.90;;;;;;7336707;19;108429;-65
2023/08/21 04:02:43;;;;;;;;;;;19.90;99.90;;;;;;7334734;19;110024;-65
2023/08/21 04:05:11;;;;;;;;;;;19.90;99.90;;;;;;7337515;19;109482;-64
2023/08/21 04:07:41;;;;;;;;;;;19.80;99.90;;;;;;7342015;19;109048;-65
2023/08/21 04:10:08;;;;;;;;;;;19.80;99.90;;;;;;7335162;19;108748;-65
2023/08/21 04:12:35;;;;;;;;;;;19.80;99.90;;;;;;7338817;19;109516;-65
2023/08/21 04:15:03;;;;;;;;;;;19.90;99.90;;;;;;7337410;19;109250;-64
2023/08/21 04:17:30;;;;;;;;;;;19.80;99.90;;;;;;7335304;19;108530;-65
2023/08/21 04:19:57;;;;;;;;;;;19.80;99.90;;;;;;7336774;19;108301;-65
2023/08/21 04:22:24;;;;;;;;;;;19.80;99.90;;;;;;7335402;19;109174;-65
2023/08/21 04:24:52;;;;;;;;;;;19.80;99.90;;;;;;7338180;19;110041;-65
2023/08/21 04:27:20;;;;;;;;;;;19.70;99.90;;;;;;7336031;19;109234;-64
2023/08/21 04:29:47;;;;;;;;;;;19.60;99.90;;;;;;7341370;19;110107;-65
2023/08/21 04:32:15;;;;;;;;;;;19.60;99.90;;;;;;7332026;19;108990;-64
2023/08/21 04:34:42;;;;;;;;;;;19.60;99.90;;;;;;7334955;19;110968;-64
2023/08/21 04:37:09;;;;;;;;;;;19.60;99.90;;;;;;7336234;19;108496;-64
2023/08/21 04:39:36;;;;;;;;;;;19.60;99.90;;;;;;7331739;19;109541;-65
2023/08/21 04:42:03;;;;;;;;;;;19.50;99.90;;;;;;7335256;19;109616;-65
2023/08/21 04:44:30;;;;;;;;;;;19.50;99.90;;;;;;7332995;19;108501;-64
2023/08/21 04:47:18;;;;;;;;;;;19.60;99.90;;;;;;7336367;19;108658;-64
2023/08/21 04:49:45;;;;;;;;;;;19.50;99.90;;;;;;7336345;19;109172;-64
2023/08/21 04:52:12;;;;;;;;;;;19.50;99.90;;;;;;7339742;19;108659;-65
2023/08/21 04:54:39;;;;;;;;;;;19.50;99.90;;;;;;7337040;19;110012;-64
2023/08/21 04:57:06;;;;;;;;;;;19.40;99.90;;;;;;7333851;19;110281;-64
2023/08/21 04:59:34;;;;;;;;;;;19.40;99.90;;;;;;7337588;19;108912;-64
2023/08/21 05:02:01;;;;;;;;;;;19.40;99.90;;;;;;7333974;19;109492;-64
2023/08/21 05:04:29;;;;;;;;;;;19.30;99.90;;;;;;7336244;19;112644;-65
2023/08/21 05:06:57;;;;;;;;;;;19.30;99.90;;;;;;7332683;19;108807;-65
2023/08/21 05:09:27;;;;;;;;;;;19.30;99.90;;;;;;7331184;19;110503;-65
2023/08/21 05:11:54;;;;;;;;;;;19.30;99.90;;;;;;7330231;19;109299;-64
2023/08/21 05:14:22;;;;;;;;;;;19.20;99.90;;;;;;7339168;19;109175;-65
2023/08/21 05:16:50;;;;;;;;;;;19.20;99.90;;;;;;7333938;19;108774;-65
2023/08/21 05:19:17;;;;;;;;;;;19.20;99.90;;;;;;7332892;19;109100;-65
2023/08/21 05:21:48;;;;;;;;;;;19.30;99.90;;;;;;7332415;19;129218;-65
2023/08/21 05:24:16;;;;;;;;;;;19.30;99.90;;;;;;7334607;19;109065;-64
2023/08/21 05:26:43;;;;;;;;;;;19.30;99.90;;;;;;7331737;19;110129;-65
2023/08/21 05:29:10;;;;;;;;;;;19.30;99.90;;;;;;7333653;19;109498;-65
2023/08/21 05:31:37;;;;;;;;;;;19.40;99.90;;;;;;7332828;19;108704;-65
2023/08/21 05:34:04;;;;;;;;;;;19.40;99.90;;;;;;7332910;19;109311;-65
2023/08/21 05:36:32;;;;;;;;;;;19.40;99.90;;;;;;7337447;19;109382;-65
2023/08/21 05:39:02;;;;;;;;;;;19.40;99.90;;;;;;7337057;19;109375;-65
2023/08/21 05:41:29;;;;;;;;;;;19.40;99.90;;;;;;7331346;19;109358;-65
2023/08/21 05:43:56;;;;;;;;;;;19.50;99.90;;;;;;7333121;19;108733;-65
2023/08/21 05:46:23;;;;;;;;;;;19.50;99.90;;;;;;7329063;19;109411;-65
2023/08/21 05:48:50;;;;;;;;;;;19.60;99.90;;;;;;7332652;19;110168;-64
2023/08/21 05:51:18;;;;;;;;;;;19.70;99.90;;;;;;7330418;19;109257;-65
2023/08/21 05:53:45;;;;;;;;;;;19.70;99.90;;;;;;7333312;19;109106;-64
2023/08/21 05:56:12;;;;;;;;;;;19.80;99.90;;;;;;7336602;19;110359;-64
2023/08/21 05:58:39;;;;;;;;;;;20.00;99.90;;;;;;7334301;19;110606;-64
2023/08/21 06:01:06;;;;;;;;;;;20.10;99.90;;;;;;7333925;19;111023;-65
2023/08/21 06:03:34;;;;;;;;;;;20.20;99.90;;;;;;7333521;19;113154;-64
2023/08/21 06:06:01;;;;;;;;;;;20.20;99.90;;;;;;7330955;19;109034;-65
2023/08/21 06:08:28;;;;;;;;;;;20.30;99.90;;;;;;7332196;19;109224;-65
2023/08/21 06:10:55;;;;;;;;;;;20.40;99.90;;;;;;7333251;19;109150;-64
2023/08/21 06:13:22;;;;;;;;;;;20.50;99.90;;;;;;7330635;19;108911;-64
2023/08/21 06:15:49;;;;;;;;;;;20.50;99.90;;;;;;7330507;19;109098;-64
2023/08/21 06:18:16;;;;;;;;;;;20.60;99.90;;;;;;7337884;19;110891;-63
2023/08/21 06:20:44;;;;;;;;;;;20.70;99.90;;;;;;7331690;19;109867;-64
2023/08/21 06:23:11;;;;;;;;;;;20.80;99.90;;;;;;7334193;19;108828;-64
2023/08/21 06:25:38;;;;;;;;;;;20.90;99.90;;;;;;7333569;19;115117;-64
2023/08/21 06:28:06;;;;;;;;;;;21.00;99.90;;;;;;7331548;19;109164;-65
2023/08/21 06:30:33;;;;;;;;;;;21.10;99.90;;;;;;7332542;19;108499;-64
2023/08/21 06:33:00;;;;;;;;;;;21.20;99.90;;;;;;7330694;19;109909;-64
2023/08/21 06:35:27;;;;;;;;;;;21.20;99.90;;;;;;7332196;19;109379;-64
2023/08/21 06:37:54;;;;;;;;;;;21.20;99.90;;;;;;7331515;19;109332;-64
2023/08/21 06:40:21;;;;;;;;;;;21.30;99.90;;;;;;7335469;19;109234;-64
2023/08/21 06:42:52;;;;;;;;;;;21.40;99.90;;;;;;7332784;19;109400;-64
2023/08/21 06:45:19;;;;;;;;;;;21.50;99.90;;;;;;7330954;19;108625;-64
2023/08/21 06:47:47;;;;;;;;;;;21.60;99.90;;;;;;7329928;19;109330;-65
2023/08/21 06:50:14;;;;;;;;;;;21.60;99.90;;;;;;7333311;19;109017;-64
2023/08/21 06:52:41;;;;;;;;;;;21.70;99.90;;;;;;7328811;19;109875;-64
2023/08/21 06:55:08;;;;;;;;;;;21.80;99.90;;;;;;7330456;19;113996;-64
2023/08/21 06:57:37;;;;;;;;;;;21.80;99.90;;;;;;7332065;19;109980;-64
2023/08/21 07:00:07;;;;;;;;;;;21.90;99.90;;;;;;7333520;19;108904;-64
2023/08/21 07:02:34;;;;;;;;;;;22.00;99.90;;;;;;7335622;19;110056;-64
2023/08/21 07:05:02;;;;;;;;;;;22.10;99.90;;;;;;7333597;19;108730;-64
2023/08/21 07:07:30;;;;;;;;;;;22.10;99.90;;;;;;7328264;19;110322;-64
2023/08/21 07:09:57;;;;;;;;;;;22.20;99.90;;;;;;7335532;19;108400;-64
2023/08/21 07:12:24;;;;;;;;;;;22.30;99.90;;;;;;7330308;19;110066;-64
2023/08/21 07:14:51;;;;;;;;;;;22.30;99.90;;;;;;7332980;19;109427;-64
2023/08/21 07:17:18;;;;;;;;;;;22.30;99.90;;;;;;7326856;19;112285;-64
2023/08/21 07:19:45;;;;;;;;;;;22.50;99.90;;;;;;7332131;19;110146;-64
2023/08/21 07:22:13;;;;;;;;;;;22.60;99.90;;;;;;7327003;19;109639;-64
2023/08/21 07:24:40;;;;;;;;;;;22.70;99.90;;;;;;7334810;19;108649;-64
2023/08/21 07:27:07;;;;;;;;;;;22.70;99.90;;;;;;7323277;19;109788;-64
2023/08/21 07:29:34;;;;;;;;;;;22.90;99.90;;;;;;7331960;19;108664;-64
2023/08/21 07:32:02;;;;;;;;;;;23.00;99.90;;;;;;7330870;19;109848;-64
2023/08/21 07:34:29;;;;;;;;;;;23.00;99.90;;;;;;7332314;19;109357;-64
2023/08/21 07:36:56;;;;;;;;;;;23.10;99.90;;;;;;7335051;19;108647;-65
2023/08/21 07:39:23;;;;;;;;;;;23.10;99.90;;;;;;7337813;19;108517;-64
2023/08/21 07:41:52;;;;;;;;;;;23.10;99.90;;;;;;7337313;19;109896;-64
2023/08/21 07:44:20;;;;;;;;;;;23.10;99.90;;;;;;7335855;19;110899;-64
2023/08/21 07:46:47;;;;;;;;;;;23.10;99.90;;;;;;7343070;19;109031;-64
2023/08/21 07:49:14;;;;;;;;;;;23.20;99.90;;;;;;7331267;19;108816;-65
2023/08/21 07:51:41;;;;;;;;;;;23.20;99.90;;;;;;7339709;19;109590;-64
2023/08/21 07:54:08;;;;;;;;;;;23.40;99.90;;;;;;7336729;19;109222;-65
2023/08/21 07:56:35;;;;;;;;;;;23.50;99.90;;;;;;7337365;19;109008;-65
2023/08/21 07:59:02;;;;;;;;;;;23.60;99.90;;;;;;7337323;19;109134;-64
2023/08/21 08:01:30;;;;;;;;;;;23.70;99.90;;;;;;7337336;19;109681;-65
2023/08/21 08:03:57;;;;;;;;;;;23.90;99.90;;;;;;7334840;19;110324;-64
2023/08/21 08:06:24;;;;;;;;;;;24.10;99.90;;;;;;7343248;19;109085;-64
2023/08/21 08:08:51;;;;;;;;;;;24.20;99.90;;;;;;7335216;19;108416;-64
2023/08/21 08:11:18;;;;;;;;;;;24.30;99.90;;;;;;7338442;19;110182;-64
2023/08/21 08:13:46;;;;;;;;;;;24.40;99.90;;;;;;7335194;19;110148;-64
2023/08/21 08:16:13;;;;;;;;;;;24.50;99.90;;;;;;7337009;19;108823;-64
2023/08/21 08:18:40;;;;;;;;;;;24.70;99.90;;;;;;7339355;19;109715;-65
2023/08/21 08:21:08;;;;;;;;;;;24.80;99.90;;;;;;7335807;19;109096;-65
2023/08/21 08:23:35;;;;;;;;;;;24.80;99.90;;;;;;7334996;19;108861;-65
2023/08/21 08:26:02;;;;;;;;;;;25.00;99.90;;;;;;7338609;19;109013;-69
2023/08/21 08:28:30;;;;;;;;;;;25.10;99.90;;;;;;7336484;19;109113;-65
2023/08/21 08:30:57;;;;;;;;;;;25.10;99.90;;;;;;7336608;19;111206;-64
2023/08/21 08:33:25;;;;;;;;;;;25.10;99.90;;;;;;7332633;19;109213;-65
2023/08/21 08:35:52;;;;;;;;;;;25.00;99.90;;;;;;7336698;19;108562;-64
2023/08/21 08:38:19;;;;;;;;;;;25.00;99.90;;;;;;7336832;19;109669;-65
2023/08/21 08:40:48;;;;;;;;;;;25.10;99.90;;;;;;7334899;19;110325;-65
2023/08/21 08:43:15;;;;;;;;;;;25.20;99.90;;;;;;7335945;19;110906;-65
2023/08/21 08:45:44;;;;;;;;;;;25.40;99.90;;;;;;7336295;19;108680;-65
2023/08/21 08:48:14;;;;;;;;;;;25.50;99.90;;;;;;7334432;19;110930;-65
2023/08/21 08:50:42;;;;;;;;;;;25.70;99.90;;;;;;7341932;19;110531;-65
2023/08/21 08:53:10;;;;;;;;;;;25.80;99.90;;;;;;7337188;19;110107;-65
2023/08/21 08:55:43;;;;;;;;;;;25.90;99.90;;;;;;7335365;19;110913;-65
2023/08/21 08:58:10;;;;;;;;;;;25.80;99.90;;;;;;7337094;19;109119;-65
2023/08/21 09:00:37;;;;;;;;;;;25.80;99.90;;;;;;7335619;19;110111;-64
2023/08/21 09:03:04;;;;;;;;;;;25.80;99.90;;;;;;7336352;19;109508;-65
2023/08/21 09:05:33;;;;;;;;;;;25.90;99.90;;;;;;7336400;19;108838;-65
2023/08/21 09:08:10;;;;;;;;;;;25.90;99.90;;;;;;7332948;19;109691;-65
2023/08/21 09:10:39;;;;;;;;;;;26.00;99.90;;;;;;7334837;19;110567;-65
2023/08/21 09:13:16;;;;;;;;;;;26.10;99.90;;;;;;7340456;19;109620;-64
2023/08/21 09:15:46;;;;;;;;;;;26.20;99.90;;;;;;7333825;19;109129;-65
2023/08/21 09:18:15;;;;;;;;;;;26.20;99.90;;;;;;7335908;19;109006;-65
2023/08/21 09:20:43;;;;;;;;;;;26.30;99.90;;;;;;7335113;19;109743;-65
2023/08/21 09:23:14;;;;;;;;;;;26.40;99.90;;;;;;7334987;19;108801;-65
2023/08/21 09:25:44;;;;;;;;;;;26.40;99.90;;;;;;7337468;19;110374;-65
2023/08/21 09:28:11;;;;;;;;;;;26.40;99.90;;;;;;7332884;19;109811;-65
2023/08/21 09:30:46;;;;;;;;;;;26.40;99.90;;;;;;7336220;19;109290;-65
2023/08/21 09:33:13;;;;;;;;;;;26.50;99.90;;;;;;7335117;19;108791;-65
2023/08/21 09:35:42;;;;;;;;;;;26.60;99.90;;;;;;7339834;19;109095;-65
2023/08/21 09:38:10;;;;;;;;;;;26.60;99.90;;;;;;7334160;19;109223;-65
2023/08/21 09:40:41;;;;;;;;;;;26.60;99.90;;;;;;7334730;19;110844;-65
2023/08/21 09:43:08;;;;;;;;;;;26.70;99.90;;;;;;7335842;19;109043;-64
2023/08/21 09:45:35;;;;;;;;;;;26.70;99.90;;;;;;7332835;19;108787;-65
2023/08/21 09:48:04;;;;;;;;;;;26.70;99.90;;;;;;7336828;19;110154;-65
2023/08/21 09:50:32;;;;;;;;;;;26.70;99.90;;;;;;7334565;19;109334;-65
2023/08/21 09:52:59;;;;;;;;;;;26.80;99.90;;;;;;7336740;19;110029;-65
2023/08/21 09:55:29;;;;;;;;;;;26.80;99.90;;;;;;7336009;19;109847;-65
2023/08/21 09:57:58;;;;;;;;;;;26.80;99.90;;;;;;7340544;19;108771;-65
2023/08/21 10:00:29;;;;;;;;;;;26.80;99.90;;;;;;7333561;19;109396;-65
2023/08/21 10:02:59;;;;;;;;;;;27.00;99.90;;;;;;7334734;19;111708;-65
2023/08/21 10:05:27;;;;;;;;;;;27.10;99.90;;;;;;7334493;19;108612;-65
2023/08/21 10:07:55;;;;;;;;;;;27.10;99.90;;;;;;7332743;19;109512;-65
2023/08/21 10:10:22;;;;;;;;;;;27.10;99.90;;;;;;7332841;19;109381;-65
2023/08/21 10:12:49;;;;;;;;;;;27.20;99.90;;;;;;7335469;19;109412;-66
2023/08/21 10:15:16;;;;;;;;;;;27.30;99.90;;;;;;7328998;19;109483;-65
2023/08/21 10:17:43;;;;;;;;;;;27.30;99.90;;;;;;7338545;19;108673;-65
2023/08/21 10:20:11;;;;;;;;;;;27.40;99.90;;;;;;7332973;19;110266;-64
2023/08/21 10:22:45;;;;;;;;;;;27.40;99.90;;;;;;7334683;19;109019;-65
2023/08/21 10:25:22;;;;;;;;;;;27.50;99.90;;;;;;7332452;19;108733;-65
2023/08/21 10:27:50;;;;;;;;;;;27.50;99.90;;;;;;7333836;19;110148;-65
2023/08/21 10:30:25;;;;;;;;;;;27.60;99.90;;;;;;7330947;19;108799;-65
2023/08/21 10:32:53;;;;;;;;;;;27.60;99.90;;;;;;7333557;19;109514;-65
2023/08/21 10:35:38;;;;;;;;;;;27.70;99.90;;;;;;7332686;19;109114;-65
2023/08/21 10:38:12;;;;;;;;;;;27.70;99.90;;;;;;7332818;19;108718;-68
2023/08/21 10:40:40;;;;;;;;;;;27.70;99.90;;;;;;7339606;19;108820;-66
2023/08/21 10:43:25;;;;;;;;;;;27.70;99.90;;;;;;7329119;19;108393;-66
2023/08/21 10:45:55;;;;;;;;;;;27.60;99.90;;;;;;7332685;19;111071;-67
2023/08/21 10:48:23;;;;;;;;;;;27.70;99.90;;;;;;7330477;19;110077;-67
2023/08/21 10:50:50;;;;;;;;;;;27.80;99.90;;;;;;7333706;19;108700;-66
2023/08/21 10:53:18;;;;;;;;;;;27.80;99.90;;;;;;7334445;19;109395;-71
2023/08/21 10:55:52;;;;;;;;;;;27.80;99.90;;;;;;7333737;19;109090;-66
2023/08/21 10:58:19;;;;;;;;;;;27.80;99.90;;;;;;7332866;19;109178;-69
2023/08/21 11:00:46;;;;;;;;;;;27.90;99.90;;;;;;7335899;19;111240;-67
2023/08/21 11:03:15;;;;;;;;;;;27.90;99.90;;;;;;7337751;19;109434;-72
2023/08/21 11:05:42;;;;;;;;;;;27.80;99.90;;;;;;7333185;19;108829;-67
2023/08/21 11:08:11;;;;;;;;;;;27.90;99.90;;;;;;7330682;19;108997;-69
2023/08/21 11:10:39;;;;;;;;;;;27.80;99.90;;;;;;7335676;19;108640;-66
2023/08/21 11:13:06;;;;;;;;;;;27.70;99.90;;;;;;7339586;19;109273;-66
2023/08/21 11:15:34;;;;;;;;;;;27.60;99.90;;;;;;7335822;19;109163;-68
2023/08/21 11:18:02;;;;;;;;;;;27.50;99.90;;;;;;7340029;19;109101;-67
2023/08/21 11:20:30;;;;;;;;;;;27.60;99.90;;;;;;7341938;19;108658;-66
2023/08/21 11:22:58;;;;;;;;;;;27.70;99.90;;;;;;7340263;19;110546;-70
2023/08/21 11:25:25;;;;;;;;;;;27.90;99.90;;;;;;7344822;19;109070;-67
2023/08/21 11:27:52;;;;;;;;;;;28.00;99.90;;;;;;7339597;19;109092;-71
2023/08/21 11:30:21;;;;;;;;;;;28.20;99.90;;;;;;7338896;19;108634;-71
2023/08/21 11:32:50;;;;;;;;;;;28.30;99.90;;;;;;7338905;19;108813;-66
2023/08/21 11:35:17;;;;;;;;;;;28.40;99.90;;;;;;7336511;19;109476;-65
2023/08/21 11:43:19;;;;;;;;;;;28.60;99.90;;;;;;7338234;19;109436;-69
2023/08/21 11:45:46;;;;;;;;;;;28.60;99.90;;;;;;7338809;19;109977;-69
2023/08/21 11:48:24;;;;;;;;;;;28.70;99.90;;;;;;7345214;19;109459;-67
2023/08/21 11:50:52;;;;;;;;;;;28.80;99.90;;;;;;7340468;19;108866;-65
2023/08/21 11:53:40;;;;;;;;;;;28.90;99.90;;;;;;7338348;19;110502;-66
2023/08/21 11:56:14;;;;;;;;;;;28.90;98.90;;;;;;7339748;19;110273;-66
2023/08/21 11:58:42;;;;;;;;;;;28.80;99.20;;;;;;7339330;19;109874;-65
2023/08/21 12:01:09;;;;;;;;;;;28.60;99.60;;;;;;7339395;19;108791;-65
2023/08/21 12:03:38;;;;;;;;;;;28.60;99.70;;;;;;7338660;19;109090;-65
2023/08/21 12:06:06;;;;;;;;;;;28.60;99.90;;;;;;7341310;19;109872;-65
2023/08/21 12:08:33;;;;;;;;;;;28.60;99.80;;;;;;7343841;19;108911;-67
2023/08/21 12:11:01;;;;;;;;;;;28.60;99.70;;;;;;7337453;19;109906;-65
2023/08/21 12:13:29;;;;;;;;;;;28.70;99.90;;;;;;7337066;19;109527;-65
2023/08/21 12:15:59;;;;;;;;;;;28.80;99.90;;;;;;7337701;19;110233;-65
2023/08/21 12:18:27;;;;;;;;;;;28.80;99.70;;;;;;7339178;19;109642;-65
2023/08/21 12:20:54;;;;;;;;;;;28.80;97.80;;;;;;7337960;19;108781;-64
2023/08/21 12:23:21;;;;;;;;;;;28.50;98.70;;;;;;7356434;19;110157;-89
2023/08/21 12:25:48;;;;;;;;;;;28.50;99.70;;;;;;7368648;19;108293;-88
2023/08/21 12:28:15;;;;;;;;;;;28.60;99.10;;;;;;7363940;19;108836;-88
2023/08/21 12:30:43;;;;;;;;;;;28.70;99.80;;;;;;7366725;19;109336;-90
2023/08/21 12:33:10;;;;;;;;;;;29.00;99.90;;;;;;7364047;19;110762;-90
2023/08/21 12:35:49;;;;;;;;;;;29.40;99.90;;;;;;7364805;19;111591;-91
2023/08/21 12:38:16;;;;;;;;;;;29.70;99.90;;;;;;7358311;19;108492;-90
2023/08/21 12:40:43;;;;;;;;;;;29.90;99.50;;;;;;7362490;19;111615;-92
2023/08/21 12:43:11;;;;;;;;;;;30.10;99.70;;;;;;7359998;19;110166;-88
2023/08/21 12:45:38;;;;;;;;;;;30.30;99.50;;;;;;7360597;19;109017;-90
2023/08/21 12:56:27;;;;;;;;;;;30.60;98.40;;;;;;7328389;19;110035;-65
2023/08/21 12:58:54;;;;;;;;;;;30.70;98.40;;;;;;7340276;19;109737;-65
2023/08/21 13:01:21;;;;;;;;;;;30.80;98.10;;;;;;7339782;19;108696;-67
2023/08/21 13:03:49;;;;;;;;;;;30.90;96.90;;;;;;7336741;19;109076;-65
2023/08/21 13:06:16;;;;;;;;;;;31.10;97.80;;;;;;7334865;19;110045;-62
2023/08/21 13:08:43;;;;;;;;;;;31.20;97.00;;;;;;7335233;19;108862;-64
2023/08/21 13:11:10;;;;;;;;;;;31.30;97.60;;;;;;7336773;19;110715;-64
2023/08/21 13:13:37;;;;;;;;;;;31.30;96.40;;;;;;7335095;19;108965;-63
2023/08/21 13:16:04;;;;;;;;;;;31.10;93.90;;;;;;7340558;19;109819;-64
2023/08/21 13:18:31;;;;;;;;;;;30.80;94.60;;;;;;7335935;19;108627;-63
2023/08/21 13:20:59;;;;;;;;;;;30.50;95.50;;;;;;7338486;19;110160;-64
2023/08/21 13:23:28;;;;;;;;;;;30.40;96.40;;;;;;7332393;19;109873;-64
2023/08/21 13:25:57;;;;;;;;;;;30.40;96.50;;;;;;7337334;19;108413;-64
2023/08/21 13:28:24;;;;;;;;;;;30.30;93.20;;;;;;7336284;19;110272;-63
2023/08/21 13:30:52;;;;;;;;;;;30.20;93.90;;;;;;7334963;19;110888;-64
2023/08/21 13:33:20;;;;;;;;;;;30.20;96.20;;;;;;7329470;19;109583;-64
2023/08/21 13:35:47;;;;;;;;;;;30.40;94.30;;;;;;7338290;19;108617;-64
2023/08/21 13:38:14;;;;;;;;;;;30.40;95.10;;;;;;7339862;19;109207;-65
2023/08/21 13:40:41;;;;;;;;;;;30.50;96.70;;;;;;7338101;19;109846;-64
2023/08/21 13:43:10;;;;;;;;;;;30.90;95.60;;;;;;7337766;19;109842;-64
2023/08/21 13:45:39;;;;;;;;;;;31.20;95.90;;;;;;7334337;19;108747;-64
2023/08/21 13:48:07;;;;;;;;;;;31.30;93.60;;;;;;7336690;19;109687;-64
2023/08/21 13:50:34;;;;;;;;;;;31.40;93.80;;;;;;7337197;19;109852;-64
2023/08/21 13:53:01;;;;;;;;;;;31.40;94.60;;;;;;7333845;19;108704;-64
2023/08/21 13:55:28;;;;;;;;;;;31.40;94.00;;;;;;7333899;19;109649;-64
2023/08/21 13:57:56;;;;;;;;;;;31.40;92.90;;;;;;7335826;19;109053;-64
2023/08/21 14:00:23;;;;;;;;;;;31.40;94.10;;;;;;7339941;19;108428;-64
2023/08/21 14:02:50;;;;;;;;;;;31.60;94.10;;;;;;7332448;19;109623;-64
2023/08/21 14:05:17;;;;;;;;;;;31.60;93.10;;;;;;7336449;19;108511;-64
2023/08/21 14:07:45;;;;;;;;;;;31.70;92.50;;;;;;7333200;19;109757;-64
2023/08/21 14:10:15;;;;;;;;;;;31.70;92.20;;;;;;7334116;19;110284;-64
2023/08/21 14:12:42;;;;;;;;;;;31.60;92.60;;;;;;7335029;19;108288;-64
2023/08/21 14:15:10;;;;;;;;;;;31.60;91.90;;;;;;7332198;19;109097;-65
2023/08/21 14:17:38;;;;;;;;;;;31.70;92.20;;;;;;7334699;19;109134;-64
2023/08/21 14:20:09;;;;;;;;;;;31.80;92.90;;;;;;7340205;19;108969;-64
2023/08/21 14:22:36;;;;;;;;;;;32.00;93.40;;;;;;7334671;19;109545;-64
2023/08/21 14:25:05;;;;;;;;;;;32.10;91.70;;;;;;7332166;19;109035;-64